Time;durP1;ratioP1;P1;durP2;ratioP2;P2;SDS_P1;SDS_P2;PMS_P1;PMS_P2;Temp;Humidity;BMP_temperature;BMP_pressure;BME280_temperature;BME280_humidity;BME280_pressure;Samples;Min_cycle;Max_cycle;Signal;HPM_P1;HPM_P2
2022/07/28 00:00:51;;;;;;;;;;;16.60;59.70;;;;;;5015507;28;19917;-78
2022/07/28 00:03:18;;;;;;;;;;;16.60;59.90;;;;;;5014563;28;19917;-74
2022/07/28 00:05:44;;;;;;;;;;;16.50;60.00;;;;;;5011047;28;19909;-73
2022/07/28 00:08:11;;;;;;;;;;;16.50;60.00;;;;;;5009829;28;19910;-73
2022/07/28 00:10:37;;;;;;;;;;;16.40;60.20;;;;;;5006883;28;19909;-73
2022/07/28 00:13:03;;;;;;;;;;;16.40;60.50;;;;;;5010959;28;19909;-82
2022/07/28 00:15:29;;;;;;;;;;;16.30;60.70;;;;;;5009338;28;20277;-73
2022/07/28 00:17:55;;;;;;;;;;;16.30;60.90;;;;;;5013517;28;19916;-74
2022/07/28 00:20:21;;;;;;;;;;;16.20;61.20;;;;;;5011467;28;19909;-73
2022/07/28 00:22:47;;;;;;;;;;;16.20;61.60;;;;;;5013422;28;19913;-74
2022/07/28 00:25:14;;;;;;;;;;;16.10;62.20;;;;;;5008813;28;20019;-73
2022/07/28 00:27:39;;;;;;;;;;;16.00;62.60;;;;;;5010033;28;19920;-74
2022/07/28 00:30:06;;;;;;;;;;;16.00;63.30;;;;;;5016389;28;19996;-74
2022/07/28 00:32:32;;;;;;;;;;;15.80;63.40;;;;;;5010568;28;19914;-74
2022/07/28 00:34:58;;;;;;;;;;;15.70;64.20;;;;;;5009564;28;20278;-75
2022/07/28 00:37:24;;;;;;;;;;;15.50;64.80;;;;;;4994590;28;19910;-74
2022/07/28 00:39:50;;;;;;;;;;;15.40;65.30;;;;;;5013955;28;20354;-74
2022/07/28 00:42:17;;;;;;;;;;;15.40;65.70;;;;;;5007898;28;19914;-74
2022/07/28 00:44:43;;;;;;;;;;;15.30;65.90;;;;;;5013794;28;19909;-74
2022/07/28 00:47:10;;;;;;;;;;;15.30;66.30;;;;;;5005559;28;19969;-76
2022/07/28 00:49:37;;;;;;;;;;;15.20;66.50;;;;;;5012674;28;19909;-74
2022/07/28 00:52:04;;;;;;;;;;;15.20;66.80;;;;;;5010840;28;20282;-79
2022/07/28 00:54:31;;;;;;;;;;;15.20;67.30;;;;;;5010893;28;19921;-75
2022/07/28 00:56:57;;;;;;;;;;;15.10;67.50;;;;;;5012268;28;19910;-74
2022/07/28 00:59:24;;;;;;;;;;;15.10;67.80;;;;;;5010425;28;20381;-74
2022/07/28 01:01:50;;;;;;;;;;;15.00;68.40;;;;;;5005256;28;19917;-73
2022/07/28 01:04:17;;;;;;;;;;;14.90;69.10;;;;;;5007643;28;20356;-74
2022/07/28 01:06:49;;;;;;;;;;;14.90;68.80;;;;;;5011474;28;20274;-75
2022/07/28 01:09:28;;;;;;;;;;;14.90;69.20;;;;;;5009742;28;19917;-74
2022/07/28 01:12:04;;;;;;;;;;;14.80;69.20;;;;;;5007267;28;19910;-74
2022/07/28 01:14:49;;;;;;;;;;;14.80;69.90;;;;;;5009388;28;19916;-73
2022/07/28 01:17:15;;;;;;;;;;;14.80;69.80;;;;;;5007845;28;20275;-74
2022/07/28 01:19:41;;;;;;;;;;;14.80;70.10;;;;;;5012300;28;19955;-74
2022/07/28 01:22:09;;;;;;;;;;;14.70;70.30;;;;;;5008588;28;20333;-74
2022/07/28 01:24:54;;;;;;;;;;;14.70;70.50;;;;;;5008477;28;19911;-74
2022/07/28 01:27:32;;;;;;;;;;;14.70;71.20;;;;;;5008637;28;19910;-74
2022/07/28 01:30:04;;;;;;;;;;;14.70;70.80;;;;;;5003428;28;19917;-74
2022/07/28 01:32:39;;;;;;;;;;;14.70;71.30;;;;;;5009345;28;20386;-73
2022/07/28 01:35:31;;;;;;;;;;;14.60;71.60;;;;;;5004165;28;19916;-74
2022/07/28 01:37:59;;;;;;;;;;;14.60;71.70;;;;;;5007113;28;19921;-76
2022/07/28 01:40:28;;;;;;;;;;;14.60;72.00;;;;;;5006856;28;19913;-73
2022/07/28 01:42:56;;;;;;;;;;;14.60;72.20;;;;;;5007941;28;19913;-74
2022/07/28 01:45:23;;;;;;;;;;;14.60;72.00;;;;;;5009592;28;19916;-73
2022/07/28 01:47:51;;;;;;;;;;;14.60;71.90;;;;;;5008347;28;19928;-75
2022/07/28 01:50:19;;;;;;;;;;;14.60;71.80;;;;;;5007832;28;19988;-74
2022/07/28 01:52:46;;;;;;;;;;;14.60;71.80;;;;;;5005401;28;19917;-74
2022/07/28 01:55:12;;;;;;;;;;;14.60;71.90;;;;;;5006971;28;19909;-74
2022/07/28 01:57:40;;;;;;;;;;;14.60;72.20;;;;;;5001368;28;19921;-74
2022/07/28 02:00:08;;;;;;;;;;;14.60;72.20;;;;;;5009563;28;20398;-74
2022/07/28 02:02:39;;;;;;;;;;;14.60;72.40;;;;;;5010412;28;20378;-74
2022/07/28 02:05:06;;;;;;;;;;;14.60;72.50;;;;;;5010107;28;19914;-74
2022/07/28 02:07:33;;;;;;;;;;;14.60;72.50;;;;;;5005513;28;20362;-78
2022/07/28 02:10:00;;;;;;;;;;;14.60;72.50;;;;;;5008598;28;19910;-84
2022/07/28 02:12:26;;;;;;;;;;;14.60;72.50;;;;;;5005358;28;19924;-74
2022/07/28 02:14:53;;;;;;;;;;;14.60;72.40;;;;;;5003338;28;19909;-74
2022/07/28 02:17:25;;;;;;;;;;;14.60;72.60;;;;;;5009130;28;19929;-74
2022/07/28 02:19:51;;;;;;;;;;;14.60;72.90;;;;;;5010922;28;19920;-74
2022/07/28 02:22:17;;;;;;;;;;;14.60;73.00;;;;;;5009978;28;19936;-74
2022/07/28 02:24:44;;;;;;;;;;;14.50;73.40;;;;;;5009180;28;19916;-74
2022/07/28 02:27:12;;;;;;;;;;;14.50;73.30;;;;;;5006235;28;19913;-74
2022/07/28 02:29:43;;;;;;;;;;;14.50;73.50;;;;;;5004454;28;19917;-73
2022/07/28 02:32:30;;;;;;;;;;;14.50;73.70;;;;;;5009339;28;20290;-82
2022/07/28 02:34:59;;;;;;;;;;;14.50;73.80;;;;;;5007371;28;19916;-74
2022/07/28 02:37:29;;;;;;;;;;;14.50;73.90;;;;;;5009328;28;19932;-74
2022/07/28 02:39:56;;;;;;;;;;;14.50;74.00;;;;;;5011747;28;20382;-74
2022/07/28 02:42:25;;;;;;;;;;;14.50;74.10;;;;;;5009859;28;19913;-74
2022/07/28 02:45:01;;;;;;;;;;;14.50;74.20;;;;;;5002874;28;19910;-74
2022/07/28 02:47:30;;;;;;;;;;;14.50;74.30;;;;;;5004546;28;20377;-74
2022/07/28 02:49:57;;;;;;;;;;;14.40;74.70;;;;;;5011807;28;19917;-74
2022/07/28 02:52:24;;;;;;;;;;;14.40;74.70;;;;;;5005385;28;19920;-74
2022/07/28 02:54:50;;;;;;;;;;;14.40;75.00;;;;;;5003872;28;19917;-73
2022/07/28 02:57:17;;;;;;;;;;;14.30;75.20;;;;;;5010670;28;19909;-74
2022/07/28 02:59:43;;;;;;;;;;;14.40;75.30;;;;;;4993093;28;19916;-74
2022/07/28 03:02:10;;;;;;;;;;;14.30;75.40;;;;;;5007403;28;19917;-74
2022/07/28 03:04:55;;;;;;;;;;;14.30;75.60;;;;;;4996071;28;19909;-74
2022/07/28 03:07:21;;;;;;;;;;;14.30;75.90;;;;;;5011388;28;19916;-74
2022/07/28 03:09:48;;;;;;;;;;;14.30;76.10;;;;;;5008304;28;19909;-74
2022/07/28 03:12:14;;;;;;;;;;;14.30;76.40;;;;;;5011273;28;19920;-77
2022/07/28 03:14:40;;;;;;;;;;;14.30;76.40;;;;;;5011533;28;19909;-74
2022/07/28 03:17:07;;;;;;;;;;;14.20;76.90;;;;;;5010684;28;19910;-73
2022/07/28 03:19:33;;;;;;;;;;;14.30;76.80;;;;;;5008822;28;20255;-73
2022/07/28 03:21:59;;;;;;;;;;;14.30;76.70;;;;;;5007413;28;20389;-80
2022/07/28 03:24:27;;;;;;;;;;;14.20;77.00;;;;;;5006317;28;19924;-73
2022/07/28 03:27:16;;;;;;;;;;;14.20;77.40;;;;;;5009462;28;19913;-74
2022/07/28 03:29:43;;;;;;;;;;;14.10;77.60;;;;;;5004794;28;19916;-74
2022/07/28 03:32:09;;;;;;;;;;;14.10;78.50;;;;;;5007167;28;19929;-79
2022/07/28 03:34:35;;;;;;;;;;;14.00;78.60;;;;;;5010368;28;20369;-73
2022/07/28 03:37:03;;;;;;;;;;;14.10;78.90;;;;;;5011915;28;19905;-78
2022/07/28 03:39:31;;;;;;;;;;;14.00;79.00;;;;;;5005526;28;19909;-74
2022/07/28 03:41:58;;;;;;;;;;;14.00;79.40;;;;;;5018140;28;19920;-73
2022/07/28 03:44:25;;;;;;;;;;;14.00;80.00;;;;;;5025054;28;19914;-74
2022/07/28 03:46:51;;;;;;;;;;;14.00;80.20;;;;;;5009165;28;19916;-74
2022/07/28 03:49:17;;;;;;;;;;;14.00;80.60;;;;;;5013144;28;19942;-74
2022/07/28 03:51:43;;;;;;;;;;;14.00;80.60;;;;;;5006247;28;19909;-74
2022/07/28 03:54:09;;;;;;;;;;;14.00;80.50;;;;;;5006288;28;19971;-77
2022/07/28 03:56:35;;;;;;;;;;;14.00;80.60;;;;;;5004371;28;19909;-73
2022/07/28 03:59:01;;;;;;;;;;;14.00;80.80;;;;;;5006928;28;19920;-80
2022/07/28 04:01:28;;;;;;;;;;;14.10;80.70;;;;;;5006409;28;19917;-73
2022/07/28 04:03:54;;;;;;;;;;;14.00;81.00;;;;;;5009515;28;19913;-79
2022/07/28 04:06:20;;;;;;;;;;;14.10;81.20;;;;;;5007160;28;19997;-73
2022/07/28 04:08:46;;;;;;;;;;;14.10;80.60;;;;;;5007619;28;19916;-74
2022/07/28 04:11:12;;;;;;;;;;;14.10;80.50;;;;;;4995827;28;19913;-74
2022/07/28 04:13:38;;;;;;;;;;;14.10;80.50;;;;;;5007576;28;19909;-74
2022/07/28 04:16:05;;;;;;;;;;;14.10;80.60;;;;;;5005191;28;19916;-74
2022/07/28 04:18:31;;;;;;;;;;;14.20;80.70;;;;;;5002517;28;19917;-73
2022/07/28 04:20:57;;;;;;;;;;;14.20;80.50;;;;;;5009996;28;19917;-74
2022/07/28 04:23:24;;;;;;;;;;;14.20;80.20;;;;;;5009053;28;19920;-73
2022/07/28 04:25:50;;;;;;;;;;;14.20;80.40;;;;;;5009710;28;19909;-75
2022/07/28 04:28:16;;;;;;;;;;;14.30;80.10;;;;;;5005386;28;19909;-77
2022/07/28 04:30:42;;;;;;;;;;;14.30;80.00;;;;;;5006545;28;19992;-75
2022/07/28 04:33:08;;;;;;;;;;;14.30;80.10;;;;;;5010921;28;19921;-75
2022/07/28 04:35:36;;;;;;;;;;;14.30;80.30;;;;;;5007087;28;19957;-74
2022/07/28 04:38:02;;;;;;;;;;;14.30;80.00;;;;;;5011474;28;19917;-73
2022/07/28 04:40:28;;;;;;;;;;;14.30;80.10;;;;;;5011892;28;19921;-78
2022/07/28 04:42:54;;;;;;;;;;;14.40;80.30;;;;;;5012839;28;20375;-73
2022/07/28 04:45:20;;;;;;;;;;;14.50;80.30;;;;;;5011621;28;19916;-74
2022/07/28 04:47:46;;;;;;;;;;;14.50;79.60;;;;;;5008098;28;19910;-74
2022/07/28 04:50:17;;;;;;;;;;;14.60;79.40;;;;;;5008937;28;19909;-73
2022/07/28 04:52:48;;;;;;;;;;;14.70;79.40;;;;;;5009594;28;19909;-74
2022/07/28 04:55:14;;;;;;;;;;;14.70;78.60;;;;;;5011579;28;19916;-73
2022/07/28 04:57:40;;;;;;;;;;;14.70;78.90;;;;;;5005713;28;19917;-74
2022/07/28 05:00:13;;;;;;;;;;;14.80;78.50;;;;;;5010701;28;19917;-74
2022/07/28 05:02:40;;;;;;;;;;;14.90;78.10;;;;;;5009202;28;19918;-73
2022/07/28 05:05:06;;;;;;;;;;;15.10;77.10;;;;;;5006550;28;19909;-80
2022/07/28 05:07:33;;;;;;;;;;;15.30;76.40;;;;;;5007506;28;19960;-75
2022/07/28 05:09:59;;;;;;;;;;;15.50;75.50;;;;;;5008266;28;19928;-73
2022/07/28 05:12:25;;;;;;;;;;;15.60;74.90;;;;;;5006285;28;20286;-73
2022/07/28 05:14:51;;;;;;;;;;;15.90;73.10;;;;;;5010744;28;19916;-73
2022/07/28 05:17:17;;;;;;;;;;;16.10;72.20;;;;;;5008172;28;19910;-73
2022/07/28 05:19:43;;;;;;;;;;;16.00;72.60;;;;;;5010399;28;19916;-73
2022/07/28 05:22:09;;;;;;;;;;;15.70;73.40;;;;;;5012350;28;20402;-73
2022/07/28 05:24:35;;;;;;;;;;;15.70;73.60;;;;;;5010778;28;19931;-76
2022/07/28 05:27:01;;;;;;;;;;;15.70;73.20;;;;;;5007126;28;20334;-80
2022/07/28 05:29:27;;;;;;;;;;;15.80;73.40;;;;;;5010338;28;20277;-73
2022/07/28 05:31:53;;;;;;;;;;;15.80;73.10;;;;;;5007197;28;20239;-73
2022/07/28 05:34:19;;;;;;;;;;;15.90;73.20;;;;;;5004707;28;19913;-73
2022/07/28 05:36:45;;;;;;;;;;;16.00;73.60;;;;;;5007903;28;19920;-74
2022/07/28 05:39:11;;;;;;;;;;;16.10;72.70;;;;;;5005609;28;20421;-74
2022/07/28 05:41:37;;;;;;;;;;;16.30;72.40;;;;;;5011760;28;20429;-73
2022/07/28 05:44:03;;;;;;;;;;;17.50;69.80;;;;;;5007158;28;20007;-78
2022/07/28 05:46:29;;;;;;;;;;;18.60;65.30;;;;;;5008853;28;19917;-74
2022/07/28 05:48:55;;;;;;;;;;;18.30;64.30;;;;;;5010737;28;20384;-73
2022/07/28 05:51:21;;;;;;;;;;;17.50;66.50;;;;;;5012348;28;19905;-75
2022/07/28 05:53:47;;;;;;;;;;;17.40;66.50;;;;;;5008309;28;20286;-74
2022/07/28 05:56:13;;;;;;;;;;;17.50;67.20;;;;;;5011452;28;19910;-74
2022/07/28 05:58:41;;;;;;;;;;;17.70;66.00;;;;;;5010093;28;19920;-73
2022/07/28 06:01:07;;;;;;;;;;;18.00;65.60;;;;;;5011003;28;19952;-74
2022/07/28 06:03:34;;;;;;;;;;;18.10;64.40;;;;;;5017582;28;20337;-73
2022/07/28 06:06:00;;;;;;;;;;;17.70;65.90;;;;;;5012275;28;19913;-83
2022/07/28 06:08:26;;;;;;;;;;;17.60;66.00;;;;;;5019821;28;19915;-74
2022/07/28 06:10:57;;;;;;;;;;;17.70;66.50;;;;;;5017587;28;20028;-76
2022/07/28 06:13:24;;;;;;;;;;;17.90;65.70;;;;;;5020009;28;20355;-76
2022/07/28 06:15:51;;;;;;;;;;;17.80;65.70;;;;;;5017769;28;19909;-74
2022/07/28 06:18:17;;;;;;;;;;;18.10;65.20;;;;;;5011288;28;19916;-74
2022/07/28 06:20:44;;;;;;;;;;;18.50;64.20;;;;;;5007082;28;19917;-75
2022/07/28 06:23:10;;;;;;;;;;;19.80;60.80;;;;;;5009093;28;19921;-75
2022/07/28 06:25:36;;;;;;;;;;;19.60;60.70;;;;;;4999035;28;19996;-75
2022/07/28 06:28:03;;;;;;;;;;;19.40;60.90;;;;;;5011504;28;19916;-80
2022/07/28 06:30:29;;;;;;;;;;;19.20;62.30;;;;;;5012252;28;20094;-75
2022/07/28 06:32:55;;;;;;;;;;;19.40;61.20;;;;;;5009315;28;19936;-74
2022/07/28 06:35:22;;;;;;;;;;;19.60;61.00;;;;;;5011000;28;19905;-74
2022/07/28 06:37:49;;;;;;;;;;;19.70;60.70;;;;;;5011673;28;20290;-74
2022/07/28 06:40:15;;;;;;;;;;;19.40;60.70;;;;;;5003302;28;20343;-74
2022/07/28 06:42:42;;;;;;;;;;;19.00;61.80;;;;;;5005795;28;19913;-74
2022/07/28 06:45:11;;;;;;;;;;;18.90;61.80;;;;;;5003170;28;19921;-75
2022/07/28 06:47:38;;;;;;;;;;;18.80;62.10;;;;;;5003802;28;19916;-74
2022/07/28 06:50:04;;;;;;;;;;;19.10;61.60;;;;;;5008681;28;20386;-75
2022/07/28 06:52:31;;;;;;;;;;;19.40;60.80;;;;;;5009450;28;20527;-75
2022/07/28 06:54:58;;;;;;;;;;;19.60;60.40;;;;;;5010535;28;19916;-75
2022/07/28 06:57:25;;;;;;;;;;;20.20;59.20;;;;;;4993353;28;19909;-74
2022/07/28 06:59:51;;;;;;;;;;;20.80;58.90;;;;;;5006622;28;19921;-77
2022/07/28 07:02:17;;;;;;;;;;;21.60;57.10;;;;;;5005883;28;19925;-74
2022/07/28 07:04:44;;;;;;;;;;;22.40;56.80;;;;;;5007300;28;19910;-76
2022/07/28 07:07:10;;;;;;;;;;;22.50;55.00;;;;;;5010416;28;20236;-74
2022/07/28 07:09:37;;;;;;;;;;;22.40;55.00;;;;;;5009232;28;20265;-75
2022/07/28 07:12:03;;;;;;;;;;;22.30;54.70;;;;;;5007679;28;19917;-76
2022/07/28 07:14:30;;;;;;;;;;;22.00;55.30;;;;;;5007766;28;20354;-78
2022/07/28 07:16:56;;;;;;;;;;;22.40;55.30;;;;;;5007697;28;19917;-75
2022/07/28 07:19:22;;;;;;;;;;;22.40;54.70;;;;;;5005402;28;19905;-78
2022/07/28 07:21:48;;;;;;;;;;;22.60;54.70;;;;;;5003494;28;20082;-75
2022/07/28 07:24:14;;;;;;;;;;;23.20;53.60;;;;;;5005958;28;19921;-74
2022/07/28 07:26:40;;;;;;;;;;;24.50;52.90;;;;;;5010897;28;19916;-75
2022/07/28 07:29:06;;;;;;;;;;;24.80;51.30;;;;;;5006071;28;19916;-75
2022/07/28 07:31:33;;;;;;;;;;;23.60;52.80;;;;;;5004624;28;19929;-74
2022/07/28 07:33:59;;;;;;;;;;;23.70;52.50;;;;;;5006068;28;20374;-74
2022/07/28 07:36:25;;;;;;;;;;;23.40;53.40;;;;;;5005067;28;19917;-73
2022/07/28 07:38:51;;;;;;;;;;;23.90;52.00;;;;;;5007958;28;19909;-74
2022/07/28 07:41:17;;;;;;;;;;;23.30;52.60;;;;;;5006589;28;19921;-74
2022/07/28 07:43:47;;;;;;;;;;;22.90;53.70;;;;;;5004702;28;19916;-74
2022/07/28 07:46:13;;;;;;;;;;;23.80;53.20;;;;;;5004650;28;19910;-74
2022/07/28 07:48:39;;;;;;;;;;;23.40;53.30;;;;;;5004519;28;19940;-75
2022/07/28 07:51:05;;;;;;;;;;;23.20;53.40;;;;;;5008237;28;19920;-74
2022/07/28 07:53:31;;;;;;;;;;;23.10;54.20;;;;;;5008263;28;20271;-74
2022/07/28 07:55:57;;;;;;;;;;;23.60;54.40;;;;;;4993579;28;19910;-74
2022/07/28 07:58:23;;;;;;;;;;;24.00;54.00;;;;;;5004692;28;19910;-73
2022/07/28 08:00:49;;;;;;;;;;;24.20;53.10;;;;;;5006672;28;20293;-74
2022/07/28 08:03:16;;;;;;;;;;;23.70;52.90;;;;;;5004685;28;19913;-74
2022/07/28 08:05:42;;;;;;;;;;;24.60;52.40;;;;;;5002602;28;20358;-75
2022/07/28 08:08:08;;;;;;;;;;;25.00;51.40;;;;;;5010406;28;19916;-73
2022/07/28 08:10:35;;;;;;;;;;;24.90;51.30;;;;;;5012892;28;19916;-74
2022/07/28 08:13:02;;;;;;;;;;;24.90;51.70;;;;;;5006574;28;20362;-80
2022/07/28 08:15:28;;;;;;;;;;;24.80;50.90;;;;;;5010155;28;19917;-73
2022/07/28 08:17:54;;;;;;;;;;;24.60;53.20;;;;;;5013887;28;20004;-74
2022/07/28 08:20:19;;;;;;;;;;;25.20;52.90;;;;;;5009937;28;19924;-74
2022/07/28 08:22:47;;;;;;;;;;;25.60;51.00;;;;;;5010680;28;19917;-73
2022/07/28 08:25:13;;;;;;;;;;;26.50;50.60;;;;;;5011654;28;19917;-73
2022/07/28 08:27:39;;;;;;;;;;;26.40;51.00;;;;;;5007018;28;19928;-74
2022/07/28 08:30:05;;;;;;;;;;;26.50;50.40;;;;;;5011946;28;19921;-74
2022/07/28 08:32:31;;;;;;;;;;;27.40;49.00;;;;;;5007149;28;20389;-73
2022/07/28 08:34:57;;;;;;;;;;;27.90;48.50;;;;;;5010872;28;19909;-74
2022/07/28 08:37:23;;;;;;;;;;;26.70;48.80;;;;;;5009354;28;19909;-73
2022/07/28 08:39:49;;;;;;;;;;;25.30;50.70;;;;;;5012208;28;20359;-74
2022/07/28 08:42:37;;;;;;;;;;;25.10;51.80;;;;;;5012450;28;19917;-74
2022/07/28 08:45:04;;;;;;;;;;;25.60;51.40;;;;;;5007710;28;19934;-74
2022/07/28 08:47:32;;;;;;;;;;;25.20;51.40;;;;;;5012594;28;19909;-73
2022/07/28 08:49:59;;;;;;;;;;;25.60;50.90;;;;;;5009559;28;19909;-72
2022/07/28 08:52:28;;;;;;;;;;;26.30;50.70;;;;;;5011984;28;19905;-73
2022/07/28 08:54:55;;;;;;;;;;;26.30;49.80;;;;;;5009104;28;19917;-74
2022/07/28 08:57:24;;;;;;;;;;;26.20;50.80;;;;;;5010358;28;19912;-74
2022/07/28 08:59:51;;;;;;;;;;;25.70;51.30;;;;;;5009262;28;19913;-74
2022/07/28 09:02:17;;;;;;;;;;;25.40;51.80;;;;;;5008448;28;19929;-74
2022/07/28 09:04:45;;;;;;;;;;;25.80;51.20;;;;;;5004673;28;20778;-74
2022/07/28 09:07:11;;;;;;;;;;;26.40;51.20;;;;;;5014923;28;19910;-72
2022/07/28 09:09:37;;;;;;;;;;;26.60;50.10;;;;;;5009855;28;19913;-75
2022/07/28 09:12:06;;;;;;;;;;;26.30;50.40;;;;;;5010450;28;20282;-74
2022/07/28 09:14:33;;;;;;;;;;;26.50;51.70;;;;;;5008595;28;19917;-72
2022/07/28 09:17:02;;;;;;;;;;;26.40;50.80;;;;;;5011238;28;19917;-72
2022/07/28 09:19:28;;;;;;;;;;;26.80;50.70;;;;;;5007372;28;19910;-73
2022/07/28 09:21:55;;;;;;;;;;;26.90;50.50;;;;;;5010699;28;19921;-75
2022/07/28 09:24:38;;;;;;;;;;;27.00;50.50;;;;;;5005108;28;19905;-72
2022/07/28 09:27:14;;;;;;;;;;;26.80;50.50;;;;;;5002209;28;19917;-72
2022/07/28 09:29:43;;;;;;;;;;;26.70;50.90;;;;;;5012922;28;19921;-74
2022/07/28 09:32:12;;;;;;;;;;;26.70;50.10;;;;;;5007501;28;19924;-75
2022/07/28 09:34:39;;;;;;;;;;;26.80;50.50;;;;;;5010429;28;20366;-75
2022/07/28 09:37:05;;;;;;;;;;;26.80;50.60;;;;;;5011903;28;19910;-73
2022/07/28 09:39:32;;;;;;;;;;;27.30;50.10;;;;;;5007579;28;20338;-74
2022/07/28 09:41:58;;;;;;;;;;;26.90;50.40;;;;;;5011341;28;19921;-74
2022/07/28 09:44:25;;;;;;;;;;;27.00;50.00;;;;;;5011411;28;19928;-74
2022/07/28 09:46:52;;;;;;;;;;;27.40;49.70;;;;;;5007713;28;19909;-75
2022/07/28 09:49:18;;;;;;;;;;;27.20;49.20;;;;;;5004376;28;20350;-73
2022/07/28 09:52:04;;;;;;;;;;;26.50;50.10;;;;;;5003578;28;19916;-74
2022/07/28 09:54:30;;;;;;;;;;;26.20;50.20;;;;;;5000105;28;19914;-77
2022/07/28 09:56:56;;;;;;;;;;;27.00;50.40;;;;;;5010566;28;19932;-75
2022/07/28 09:59:22;;;;;;;;;;;27.70;49.20;;;;;;5006982;28;19914;-73
2022/07/28 10:01:52;;;;;;;;;;;27.70;48.60;;;;;;4999407;28;19921;-75
2022/07/28 10:04:29;;;;;;;;;;;27.70;48.70;;;;;;5004699;28;19920;-77
2022/07/28 10:07:25;;;;;;;;;;;28.00;48.80;;;;;;5009546;28;19920;-73
2022/07/28 10:10:01;;;;;;;;;;;28.00;48.40;;;;;;4991667;28;19910;-74
2022/07/28 10:12:29;;;;;;;;;;;28.20;47.80;;;;;;5023331;28;19909;-72
2022/07/28 10:14:57;;;;;;;;;;;28.20;47.40;;;;;;5019119;28;20301;-74
2022/07/28 10:17:24;;;;;;;;;;;28.10;48.40;;;;;;5020120;28;19925;-73
2022/07/28 10:19:53;;;;;;;;;;;28.00;47.80;;;;;;5022660;28;20366;-73
2022/07/28 10:22:20;;;;;;;;;;;27.30;48.00;;;;;;5016246;28;19917;-73
2022/07/28 10:24:48;;;;;;;;;;;27.10;47.90;;;;;;5014437;28;19913;-78
2022/07/28 10:27:15;;;;;;;;;;;27.10;48.40;;;;;;5015911;28;19909;-74
2022/07/28 10:29:42;;;;;;;;;;;27.10;48.30;;;;;;5008451;28;19910;-73
2022/07/28 10:32:08;;;;;;;;;;;27.40;47.40;;;;;;4999569;28;19918;-75
2022/07/28 10:34:45;;;;;;;;;;;27.20;48.00;;;;;;5010916;28;19916;-74
2022/07/28 10:37:19;;;;;;;;;;;27.50;48.30;;;;;;5008650;28;20375;-74
2022/07/28 10:39:50;;;;;;;;;;;27.90;47.40;;;;;;5011252;28;20016;-72
2022/07/28 10:42:16;;;;;;;;;;;27.20;47.20;;;;;;5011706;28;19924;-74
2022/07/28 10:44:44;;;;;;;;;;;26.80;47.80;;;;;;5005693;28;19910;-74
2022/07/28 10:47:10;;;;;;;;;;;26.90;47.70;;;;;;5007726;28;20369;-72
2022/07/28 10:49:37;;;;;;;;;;;27.20;48.10;;;;;;5006527;28;20366;-73
2022/07/28 10:52:04;;;;;;;;;;;27.30;47.40;;;;;;5006524;28;19917;-75
2022/07/28 10:54:32;;;;;;;;;;;27.30;47.80;;;;;;5007129;28;20477;-74
2022/07/28 10:57:02;;;;;;;;;;;26.90;48.50;;;;;;5006623;28;20239;-74
2022/07/28 10:59:47;;;;;;;;;;;27.70;48.10;;;;;;5007756;28;19910;-74
2022/07/28 11:02:32;;;;;;;;;;;28.10;45.70;;;;;;5007058;28;19925;-75
2022/07/28 11:05:00;;;;;;;;;;;28.20;46.10;;;;;;4999786;28;19920;-74
2022/07/28 11:07:36;;;;;;;;;;;27.70;45.80;;;;;;5015978;28;19909;-74
2022/07/28 11:10:15;;;;;;;;;;;27.30;46.30;;;;;;5008549;28;19924;-74
2022/07/28 11:12:44;;;;;;;;;;;27.00;46.70;;;;;;5005038;28;19909;-73
2022/07/28 11:15:26;;;;;;;;;;;26.80;47.40;;;;;;5016110;28;19920;-73
2022/07/28 11:18:10;;;;;;;;;;;26.60;47.40;;;;;;5009172;28;20519;-74
2022/07/28 11:20:52;;;;;;;;;;;26.90;47.00;;;;;;5004839;28;19913;-74
2022/07/28 11:23:36;;;;;;;;;;;27.50;47.70;;;;;;5004500;28;20445;-75
2022/07/28 11:26:23;;;;;;;;;;;27.80;46.60;;;;;;5019769;28;19911;-77
2022/07/28 11:28:59;;;;;;;;;;;28.00;46.10;;;;;;5006185;28;19921;-75
2022/07/28 11:31:43;;;;;;;;;;;28.10;46.00;;;;;;5010335;28;19921;-79
2022/07/28 11:34:13;;;;;;;;;;;27.80;45.90;;;;;;5008291;28;19910;-79
2022/07/28 11:37:01;;;;;;;;;;;27.50;47.00;;;;;;4990039;28;20398;-73
2022/07/28 11:39:28;;;;;;;;;;;27.70;46.40;;;;;;5008428;28;20389;-73
2022/07/28 11:41:55;;;;;;;;;;;27.70;46.30;;;;;;5007776;28;19924;-72
2022/07/28 11:44:26;;;;;;;;;;;27.80;46.70;;;;;;5007415;28;19917;-73
2022/07/28 11:46:52;;;;;;;;;;;27.80;46.70;;;;;;5009453;28;19909;-73
2022/07/28 11:49:19;;;;;;;;;;;27.30;46.90;;;;;;5013771;28;20299;-74
2022/07/28 11:52:04;;;;;;;;;;;27.50;46.60;;;;;;5010665;28;19910;-72
2022/07/28 11:54:30;;;;;;;;;;;27.80;46.90;;;;;;5012630;28;19936;-72
2022/07/28 11:56:57;;;;;;;;;;;27.70;46.60;;;;;;5011189;28;19917;-73
2022/07/28 11:59:23;;;;;;;;;;;27.80;46.60;;;;;;5009943;28;19913;-72
2022/07/28 12:01:53;;;;;;;;;;;27.60;47.00;;;;;;5010821;28;20012;-73
2022/07/28 12:04:19;;;;;;;;;;;27.50;47.70;;;;;;5005089;28;20097;-72
2022/07/28 12:06:45;;;;;;;;;;;27.90;47.70;;;;;;5012123;28;19914;-73
2022/07/28 12:09:16;;;;;;;;;;;27.90;46.40;;;;;;5010054;28;19910;-72
2022/07/28 12:11:44;;;;;;;;;;;27.90;46.50;;;;;;5018981;28;20301;-71
2022/07/28 12:14:12;;;;;;;;;;;27.80;46.50;;;;;;5007612;28;19913;-74
2022/07/28 12:16:38;;;;;;;;;;;27.80;46.70;;;;;;5010788;28;19921;-72
2022/07/28 12:19:05;;;;;;;;;;;28.50;47.10;;;;;;5011879;28;20363;-73
2022/07/28 12:21:34;;;;;;;;;;;29.10;45.80;;;;;;5009487;28;19910;-72
2022/07/28 12:24:00;;;;;;;;;;;28.70;45.80;;;;;;5007837;28;20317;-75
2022/07/28 12:26:29;;;;;;;;;;;28.60;45.70;;;;;;5004801;28;19917;-73
2022/07/28 12:28:55;;;;;;;;;;;28.00;45.70;;;;;;5008498;28;19933;-72
2022/07/28 12:31:28;;;;;;;;;;;27.90;46.40;;;;;;5005113;28;20342;-72
2022/07/28 12:33:55;;;;;;;;;;;28.30;46.30;;;;;;5010934;28;19913;-73
2022/07/28 12:36:23;;;;;;;;;;;28.60;45.70;;;;;;5009160;28;19956;-74
2022/07/28 12:38:52;;;;;;;;;;;28.50;45.30;;;;;;5010197;28;19909;-74
2022/07/28 12:41:18;;;;;;;;;;;28.50;45.40;;;;;;5008612;28;19916;-73
2022/07/28 12:43:51;;;;;;;;;;;28.70;45.60;;;;;;5011324;28;19925;-74
2022/07/28 12:46:24;;;;;;;;;;;29.10;45.40;;;;;;5009655;28;20354;-73
2022/07/28 12:48:51;;;;;;;;;;;29.40;44.90;;;;;;5009978;28;19917;-73
2022/07/28 12:51:35;;;;;;;;;;;29.10;44.50;;;;;;5009564;28;19916;-75
2022/07/28 12:54:02;;;;;;;;;;;28.80;44.80;;;;;;5010590;28;19913;-75
2022/07/28 12:56:28;;;;;;;;;;;29.00;44.70;;;;;;5002610;28;19913;-72
2022/07/28 12:59:07;;;;;;;;;;;29.10;44.30;;;;;;5009607;28;19916;-73
2022/07/28 13:01:46;;;;;;;;;;;29.10;44.80;;;;;;5012830;28;19913;-74
2022/07/28 13:04:12;;;;;;;;;;;29.00;44.80;;;;;;5003787;28;19909;-72
2022/07/28 13:06:39;;;;;;;;;;;29.20;44.60;;;;;;5007100;28;19924;-76
2022/07/28 13:09:05;;;;;;;;;;;29.20;44.60;;;;;;5012641;28;20317;-73
2022/07/28 13:11:32;;;;;;;;;;;29.30;44.20;;;;;;5009464;28;19909;-73
2022/07/28 13:13:58;;;;;;;;;;;28.70;44.30;;;;;;5003928;28;19910;-73
2022/07/28 13:16:25;;;;;;;;;;;28.50;44.80;;;;;;4998901;28;19932;-73
2022/07/28 13:18:56;;;;;;;;;;;28.20;44.90;;;;;;5012788;28;19917;-75
2022/07/28 13:21:41;;;;;;;;;;;28.20;44.70;;;;;;5011533;28;19909;-73
2022/07/28 13:24:11;;;;;;;;;;;28.30;44.90;;;;;;5009686;28;19918;-72
2022/07/28 13:26:37;;;;;;;;;;;28.30;45.00;;;;;;5004445;28;19913;-73
2022/07/28 13:29:03;;;;;;;;;;;28.30;45.20;;;;;;5005906;28;19913;-75
2022/07/28 13:31:34;;;;;;;;;;;28.50;44.80;;;;;;5008592;28;19921;-75
2022/07/28 13:34:07;;;;;;;;;;;28.30;44.80;;;;;;5007384;28;20378;-76
2022/07/28 13:36:34;;;;;;;;;;;28.50;44.80;;;;;;5011205;28;20334;-74
2022/07/28 13:39:00;;;;;;;;;;;28.60;44.70;;;;;;5008881;28;20290;-75
2022/07/28 13:41:26;;;;;;;;;;;28.80;45.40;;;;;;5010811;28;19913;-73
2022/07/28 13:43:55;;;;;;;;;;;28.80;44.60;;;;;;5003137;28;19918;-76
2022/07/28 13:46:21;;;;;;;;;;;28.80;44.30;;;;;;5005209;28;19917;-73
2022/07/28 13:48:47;;;;;;;;;;;28.50;44.40;;;;;;5007387;28;20351;-77
2022/07/28 13:51:14;;;;;;;;;;;28.60;44.40;;;;;;5006338;28;19925;-73
2022/07/28 13:53:40;;;;;;;;;;;28.50;44.90;;;;;;5003128;28;19917;-75
2022/07/28 13:56:07;;;;;;;;;;;28.50;44.70;;;;;;5010997;28;20441;-74
2022/07/28 13:58:33;;;;;;;;;;;28.70;45.30;;;;;;5009134;28;19921;-73
2022/07/28 14:00:59;;;;;;;;;;;28.70;44.70;;;;;;5010444;28;20243;-77
2022/07/28 14:03:26;;;;;;;;;;;28.30;44.70;;;;;;5008024;28;19924;-73
2022/07/28 14:05:52;;;;;;;;;;;28.50;44.80;;;;;;5004386;28;20255;-74
2022/07/28 14:08:18;;;;;;;;;;;28.40;44.60;;;;;;5008877;28;20000;-73
2022/07/28 14:10:49;;;;;;;;;;;28.30;44.90;;;;;;5004627;28;20351;-74
2022/07/28 14:13:16;;;;;;;;;;;28.40;44.60;;;;;;5011017;28;19909;-73
2022/07/28 14:15:41;;;;;;;;;;;28.40;44.90;;;;;;5009647;28;19920;-74
2022/07/28 14:18:08;;;;;;;;;;;28.60;44.60;;;;;;5011276;28;19909;-72
2022/07/28 14:20:34;;;;;;;;;;;28.30;44.70;;;;;;5010163;28;20306;-73
2022/07/28 14:23:00;;;;;;;;;;;28.40;45.00;;;;;;5006474;28;19921;-82